aviador You're here:

SBPA Decoded Metar

PORTO ALEGRE in BRAZIL
Report Time2018-04-25 23:00:00
UTC Time2018-04-26 00:22:09
Flight Rules Old
Wind160° at 04 kt
W.Decomp.*RWY 11: 1.6 kt HW 3.7 kt RCW
W.Rank160° ranks 14
Current wind is below 160° avg. (6.6)
Visibility9999 m
Phenomena:N/A
Clouds:Few 040 Hf
Expected CloudBase > 800 ft AGL from Temp-Dew spread
CeilingNone
Temp25°C (ISA +10)
Dew Point23°C (89% RH)
QNH1018 hPa
Density Alt1,371 ft
Elevation10 ft
Report Wrong Elevation
Raw Report
METAR SBPA 252300Z 16004KT 9999 FEW040 25/23 Q1018=

Extra information for SBPA:More info

Metar Taf Metar & Taf Last 4 Metars F.Rules Stats Wind Profile Meteogram Temp Stats Airport Information Weather charts Add Link Nearby VenuesMetar ALERT Operation Metar Decoded Social comments